Time;durP1;ratioP1;P1;durP2;ratioP2;P2;SDS_P1;SDS_P2;PMS_P1;PMS_P2;Temp;Humidity;BMP_temperature;BMP_pressure;BME280_temperature;BME280_humidity;BME280_pressure;Samples;Min_cycle;Max_cycle;Signal;HPM_P1;HPM_P2
2024/01/31 00:02:05;;;;;;;41.90;19.30;;;;;;;-5.51;66.28;103196.32;107495;1251;107992;-65
2024/01/31 00:04:33;;;;;;;39.10;18.80;;;;;;;-5.50;66.22;103195.11;107547;1250;97837;-65
2024/01/31 00:07:01;;;;;;;38.90;18.80;;;;;;;-5.49;66.10;103196.70;107502;1251;98640;-65
2024/01/31 00:09:30;;;;;;;39.60;18.80;;;;;;;-5.50;66.17;103194.75;107539;1251;111811;-65
2024/01/31 00:11:58;;;;;;;41.20;18.70;;;;;;;-5.51;66.42;103197.19;107501;1251;108149;-66
2024/01/31 00:14:27;;;;;;;46.00;20.00;;;;;;;-5.51;66.25;103198.06;107470;1251;108012;-65
2024/01/31 00:16:55;;;;;;;39.90;19.30;;;;;;;-5.53;66.10;103197.52;107518;1251;97820;-64
2024/01/31 00:19:23;;;;;;;45.30;20.60;;;;;;;-5.54;66.19;103198.02;107484;1251;97713;-64
2024/01/31 00:21:52;;;;;;;43.00;19.60;;;;;;;-5.54;66.08;103202.56;107634;1251;111169;-65
2024/01/31 00:24:20;;;;;;;40.30;19.40;;;;;;;-5.57;65.91;103196.73;107486;1251;107491;-66
2024/01/31 00:26:48;;;;;;;40.50;18.80;;;;;;;-5.58;66.04;103200.74;107449;1254;107805;-64
2024/01/31 00:29:16;;;;;;;40.30;17.50;;;;;;;-5.59;65.87;103193.91;107525;1251;97982;-65
2024/01/31 00:31:45;;;;;;;44.90;20.10;;;;;;;-5.59;66.05;103195.64;107499;1252;99581;-65
2024/01/31 00:34:14;;;;;;;47.90;20.50;;;;;;;-5.62;65.86;103197.00;107581;1254;112022;-65
2024/01/31 00:36:42;;;;;;;42.20;20.50;;;;;;;-5.64;66.34;103193.48;107609;1251;107924;-64
2024/01/31 00:39:11;;;;;;;44.20;18.70;;;;;;;-5.62;66.15;103190.70;107555;1251;108615;-65
2024/01/31 00:41:39;;;;;;;40.80;19.70;;;;;;;-5.59;66.18;103188.84;107582;1251;98024;-64
2024/01/31 00:44:08;;;;;;;44.10;20.90;;;;;;;-5.57;66.16;103192.89;107522;1251;99470;-65
2024/01/31 00:46:41;;;;;;;47.00;19.90;;;;;;;-5.57;66.15;103191.15;107590;1251;110873;-65
2024/01/31 00:49:09;;;;;;;53.70;21.40;;;;;;;-5.60;65.87;103190.40;107464;1251;109317;-65
2024/01/31 00:51:42;;;;;;;42.30;19.80;;;;;;;-5.68;65.45;103186.77;107511;1254;108639;-65
2024/01/31 00:54:12;;;;;;;45.20;20.50;;;;;;;-5.76;65.24;103190.10;107542;1251;98075;-65
2024/01/31 00:56:40;;;;;;;42.00;20.90;;;;;;;-5.86;65.10;103189.23;107563;1251;97777;-65
2024/01/31 00:59:09;;;;;;;48.50;22.10;;;;;;;-5.95;64.85;103190.27;107564;1250;112358;-65
2024/01/31 01:01:37;;;;;;;42.20;20.20;;;;;;;-6.04;64.95;103193.27;107539;1251;108392;-65
2024/01/31 01:04:09;;;;;;;43.90;20.90;;;;;;;-6.14;64.86;103195.02;107471;1251;107203;-65
2024/01/31 01:06:41;;;;;;;48.50;23.50;;;;;;;-6.21;64.93;103192.60;107508;1250;97834;-65
2024/01/31 01:09:09;;;;;;;49.70;21.60;;;;;;;-6.27;65.04;103191.59;107518;1251;98396;-65
2024/01/31 01:11:38;;;;;;;51.20;24.00;;;;;;;-6.31;64.81;103185.40;107551;1254;111831;-65
2024/01/31 01:14:06;;;;;;;46.70;22.50;;;;;;;-6.32;65.44;103183.29;107523;1251;107509;-65
2024/01/31 01:16:34;;;;;;;49.60;22.00;;;;;;;-6.33;65.25;103183.60;107585;1250;108463;-65
2024/01/31 01:19:04;;;;;;;54.90;24.20;;;;;;;-6.36;65.10;103177.80;107531;1250;97805;-65
2024/01/31 01:21:33;;;;;;;50.80;23.40;;;;;;;-6.38;65.11;103175.33;107551;1251;97829;-65
2024/01/31 01:24:02;;;;;;;52.00;23.00;;;;;;;-6.41;65.06;103171.77;107502;1254;112761;-65
2024/01/31 01:26:30;;;;;;;50.90;23.30;;;;;;;-6.45;64.87;103168.89;107600;1255;108877;-65
2024/01/31 01:28:59;;;;;;;56.40;25.10;;;;;;;-6.46;65.09;103167.28;107572;1251;108470;-65
2024/01/31 01:31:27;;;;;;;54.40;23.80;;;;;;;-6.47;65.25;103166.75;107539;1250;97834;-65
2024/01/31 01:33:56;;;;;;;67.10;26.10;;;;;;;-6.47;64.99;103163.60;107613;1251;97714;-66
2024/01/31 01:36:25;;;;;;;54.80;27.10;;;;;;;-6.47;65.22;103164.65;107650;1253;112862;-66
2024/01/31 01:38:53;;;;;;;58.10;27.10;;;;;;;-6.45;65.53;103159.63;107649;1251;107521;-66
2024/01/31 01:41:22;;;;;;;66.20;27.90;;;;;;;-6.42;65.91;103157.25;107537;1251;108103;-65
2024/01/31 01:43:50;;;;;;;57.90;27.60;;;;;;;-6.39;66.14;103156.08;107601;1251;97835;-65
2024/01/31 01:46:21;;;;;;;60.70;26.90;;;;;;;-6.36;66.32;103152.82;107598;1251;97848;-65
2024/01/31 01:48:52;;;;;;;66.60;28.80;;;;;;;-6.32;66.41;103150.63;107608;1250;110243;-65
2024/01/31 01:51:23;;;;;;;63.40;26.90;;;;;;;-6.27;66.67;103144.97;107592;1251;107156;-65
2024/01/31 01:53:52;;;;;;;62.40;26.10;;;;;;;-6.22;66.51;103144.36;107602;1251;108346;-65
2024/01/31 01:56:20;;;;;;;64.30;26.90;;;;;;;-6.21;66.60;103144.20;107560;1251;97910;-64
2024/01/31 01:58:50;;;;;;;61.70;26.30;;;;;;;-6.20;66.52;103142.65;107589;1254;97758;-65
2024/01/31 02:01:20;;;;;;;70.20;27.20;;;;;;;-6.16;66.53;103138.38;107539;1251;112454;-65
2024/01/31 02:03:54;;;;;;;64.10;26.70;;;;;;;-6.15;66.65;103133.67;107560;1251;107846;-65
2024/01/31 02:06:24;;;;;;;59.70;27.20;;;;;;;-6.14;66.47;103134.39;107557;1251;106763;-65
2024/01/31 02:08:52;;;;;;;62.70;25.70;;;;;;;-6.12;66.42;103134.94;107625;1251;97863;-65
2024/01/31 02:11:21;;;;;;;62.10;27.40;;;;;;;-6.10;66.58;103136.03;107557;1250;98085;-65
2024/01/31 02:13:49;;;;;;;70.70;28.50;;;;;;;-6.09;66.28;103129.75;107582;1250;110681;-65
2024/01/31 02:16:17;;;;;;;72.30;32.90;;;;;;;-6.11;66.18;103128.16;107572;1250;108338;-65
2024/01/31 02:18:46;;;;;;;60.60;27.50;;;;;;;-6.14;65.92;103128.96;107515;1253;108399;-65
2024/01/31 02:21:16;;;;;;;58.00;28.20;;;;;;;-6.17;66.41;103137.30;107569;1251;97864;-64
2024/01/31 02:23:44;;;;;;;59.20;26.80;;;;;;;-6.12;66.25;103133.20;107584;1251;97836;-65
2024/01/31 02:26:12;;;;;;;62.30;24.80;;;;;;;-6.11;66.19;103134.10;107573;1251;112096;-65
2024/01/31 02:28:41;;;;;;;59.00;27.40;;;;;;;-6.14;66.19;103138.77;107582;1251;107907;-66
2024/01/31 02:31:09;;;;;;;62.70;27.00;;;;;;;-6.11;66.48;103141.61;107524;1251;107913;-66
2024/01/31 02:33:37;;;;;;;61.80;27.70;;;;;;;-6.09;66.31;103133.95;107617;1251;97834;-65
2024/01/31 02:36:06;;;;;;;67.10;26.60;;;;;;;-6.11;66.40;103134.09;107557;1251;98341;-65
2024/01/31 02:38:34;;;;;;;68.00;28.90;;;;;;;-6.14;66.16;103131.95;107547;1251;112067;-66
2024/01/31 02:41:03;;;;;;;55.60;25.90;;;;;;;-6.14;66.31;103126.19;107557;1251;107940;-65
2024/01/31 02:43:32;;;;;;;53.30;26.90;;;;;;;-6.14;66.14;103123.39;107611;1254;108241;-64
2024/01/31 02:46:01;;;;;;;61.20;27.30;;;;;;;-6.11;66.30;103120.30;107649;1250;97825;-65
2024/01/31 02:48:29;;;;;;;58.00;27.90;;;;;;;-6.10;66.20;103124.16;107602;1251;98722;-67
2024/01/31 02:50:58;;;;;;;56.50;26.90;;;;;;;-6.08;66.08;103121.55;107584;1251;112195;-65
2024/01/31 02:53:26;;;;;;;58.90;25.10;;;;;;;-6.08;66.15;103117.53;107565;1253;106698;-65
2024/01/31 02:55:54;;;;;;;62.80;26.00;;;;;;;-6.07;65.97;103114.42;107552;1251;107306;-65
2024/01/31 02:58:23;;;;;;;57.20;25.50;;;;;;;-6.04;66.62;103116.77;107542;1251;97866;-65
2024/01/31 03:00:51;;;;;;;57.60;25.80;;;;;;;-6.01;66.06;103116.83;107607;1250;98401;-64
2024/01/31 03:03:19;;;;;;;58.70;24.90;;;;;;;-6.01;66.33;103116.29;107589;1251;110669;-65
2024/01/31 03:05:47;;;;;;;58.00;26.40;;;;;;;-6.05;66.38;103115.17;107529;1254;108871;-65
2024/01/31 03:08:16;;;;;;;65.00;26.50;;;;;;;-6.11;66.18;103114.35;107567;1251;107452;-68
2024/01/31 03:10:44;;;;;;;51.20;23.50;;;;;;;-6.13;65.91;103112.23;107577;1251;97919;-64
2024/01/31 03:13:14;;;;;;;56.00;24.80;;;;;;;-6.15;65.83;103117.79;107593;1251;99524;-64
2024/01/31 03:15:42;;;;;;;55.40;24.20;;;;;;;-6.12;66.11;103119.56;107668;1251;111195;-63
2024/01/31 03:18:11;;;;;;;58.20;25.20;;;;;;;-6.11;65.92;103114.54;107599;1251;108390;-65
2024/01/31 03:20:41;;;;;;;55.20;23.80;;;;;;;-6.12;66.17;103117.48;107602;1254;108604;-64
2024/01/31 03:23:10;;;;;;;52.80;26.30;;;;;;;-6.12;65.95;103116.61;107584;1251;97813;-64
2024/01/31 03:25:38;;;;;;;50.00;23.50;;;;;;;-6.14;66.06;103115.52;107566;1251;97729;-63
2024/01/31 03:28:07;;;;;;;55.00;23.70;;;;;;;-6.13;65.81;103111.69;107581;1251;112117;-64
2024/01/31 03:30:35;;;;;;;58.80;25.30;;;;;;;-6.12;66.03;103110.31;107572;1251;109045;-66
2024/01/31 03:33:04;;;;;;;53.80;24.50;;;;;;;-6.16;65.72;103105.35;107548;1251;107141;-65
2024/01/31 03:35:33;;;;;;;63.80;28.00;;;;;;;-6.21;65.59;103105.59;107527;1250;97857;-64
2024/01/31 03:38:01;;;;;;;54.20;25.90;;;;;;;-6.25;65.75;103103.79;107572;1251;97880;-65
2024/01/31 03:40:31;;;;;;;50.90;23.30;;;;;;;-6.26;66.11;103100.27;107551;1254;111327;-64
2024/01/31 03:42:59;;;;;;;51.20;23.50;;;;;;;-6.23;66.06;103097.89;107536;1251;108002;-64
2024/01/31 03:45:28;;;;;;;56.20;25.50;;;;;;;-6.20;66.01;103097.59;107530;1251;108093;-65
2024/01/31 03:47:56;;;;;;;59.70;22.10;;;;;;;-6.16;66.31;103098.88;107582;1251;97833;-65
2024/01/31 03:50:25;;;;;;;51.40;24.60;;;;;;;-6.18;65.75;103097.97;107527;1254;97710;-67
2024/01/31 03:52:53;;;;;;;60.10;23.70;;;;;;;-6.22;65.88;103097.20;107585;1251;111795;-64
2024/01/31 03:55:22;;;;;;;51.40;22.10;;;;;;;-6.26;65.78;103090.48;107570;1250;107572;-66
2024/01/31 03:57:50;;;;;;;55.50;23.10;;;;;;;-6.33;65.80;103094.73;107447;1253;107927;-65
2024/01/31 04:00:19;;;;;;;51.40;23.10;;;;;;;-6.36;66.09;103090.13;107541;1253;97871;-65
2024/01/31 04:02:47;;;;;;;60.20;23.00;;;;;;;-6.37;66.13;103083.48;107630;1251;98366;-65
2024/01/31 04:05:16;;;;;;;50.10;21.90;;;;;;;-6.36;66.29;103083.48;107593;1251;110997;-64
2024/01/31 04:07:45;;;;;;;50.90;22.20;;;;;;;-6.36;66.30;103083.32;107563;1250;107881;-64
2024/01/31 04:10:14;;;;;;;50.90;22.50;;;;;;;-6.40;66.07;103087.42;107569;1251;107102;-66
2024/01/31 04:12:43;;;;;;;54.20;23.20;;;;;;;-6.45;66.02;103087.34;107544;1251;97820;-65
2024/01/31 04:15:11;;;;;;;48.30;22.50;;;;;;;-6.47;65.98;103083.46;107542;1251;98378;-65
2024/01/31 04:17:40;;;;;;;50.10;21.90;;;;;;;-6.48;66.11;103085.16;107577;1251;111777;-66
2024/01/31 04:20:09;;;;;;;51.70;23.90;;;;;;;-6.49;66.21;103088.31;107549;1251;108594;-65
2024/01/31 04:22:39;;;;;;;47.70;21.80;;;;;;;-6.46;66.31;103087.31;107550;1254;107244;-65
2024/01/31 04:25:07;;;;;;;51.00;22.40;;;;;;;-6.47;66.12;103086.25;107589;1251;97860;-65
2024/01/31 04:27:36;;;;;;;60.40;22.70;;;;;;;-6.47;66.42;103091.50;107663;1251;98392;-65
2024/01/31 04:30:07;;;;;;;48.40;22.30;;;;;;;-6.44;66.42;103085.77;107548;1251;112029;-66
2024/01/31 04:32:36;;;;;;;56.00;23.50;;;;;;;-6.44;66.42;103086.85;107571;1251;107734;-65
2024/01/31 04:35:13;;;;;;;46.60;20.70;;;;;;;-6.44;66.50;103089.11;107568;1251;106727;-64
2024/01/31 04:37:41;;;;;;;51.80;23.10;;;;;;;-6.42;66.40;103087.91;107562;1251;98304;-64
2024/01/31 04:40:11;;;;;;;55.50;23.90;;;;;;;-6.40;66.67;103083.94;107603;1251;98597;-64
2024/01/31 04:42:39;;;;;;;57.90;22.60;;;;;;;-6.39;66.24;103080.45;107585;1251;110936;-65
2024/01/31 04:45:08;;;;;;;49.00;22.30;;;;;;;-6.41;66.45;103081.30;107548;1251;107448;-64
2024/01/31 04:47:37;;;;;;;54.10;23.40;;;;;;;-6.40;66.39;103082.36;107599;1250;108836;-65
2024/01/31 04:50:06;;;;;;;53.80;20.80;;;;;;;-6.39;66.35;103080.48;107547;1251;97928;-65
2024/01/31 04:52:36;;;;;;;44.50;21.30;;;;;;;-6.42;66.42;103083.55;107680;1251;98372;-64
2024/01/31 04:55:05;;;;;;;55.10;21.80;;;;;;;-6.43;66.37;103082.98;107543;1251;112584;-65
2024/01/31 04:57:33;;;;;;;48.70;22.80;;;;;;;-6.44;66.43;103086.83;107531;1254;108553;-65
2024/01/31 05:00:04;;;;;;;49.90;22.00;;;;;;;-6.46;66.64;103084.54;107572;1251;108171;-64
2024/01/31 05:02:32;;;;;;;46.60;20.20;;;;;;;-6.47;66.54;103085.38;107596;1251;97828;-65
2024/01/31 05:05:01;;;;;;;49.60;21.80;;;;;;;-6.52;66.55;103091.73;107570;1251;97704;-66
2024/01/31 05:07:29;;;;;;;52.20;22.60;;;;;;;-6.54;66.27;103091.88;107580;1251;111352;-65
2024/01/31 05:09:58;;;;;;;50.00;22.90;;;;;;;-6.54;66.39;103088.55;107534;1251;108480;-65
2024/01/31 05:12:27;;;;;;;51.50;21.90;;;;;;;-6.53;66.58;103088.56;107540;1251;108595;-66
2024/01/31 05:14:55;;;;;;;59.40;21.40;;;;;;;-6.51;66.59;103090.89;107542;1251;97812;-65
2024/01/31 05:17:23;;;;;;;46.10;21.30;;;;;;;-6.52;66.36;103090.88;107536;1250;97976;-65
2024/01/31 05:19:52;;;;;;;52.00;21.10;;;;;;;-6.52;66.81;103093.83;107610;1251;112844;-65
2024/01/31 05:22:20;;;;;;;51.00;21.10;;;;;;;-6.53;66.92;103090.14;107566;1250;108345;-65
2024/01/31 05:24:48;;;;;;;51.30;24.20;;;;;;;-6.54;66.88;103091.86;107596;1251;107670;-65
2024/01/31 05:27:17;;;;;;;48.20;21.90;;;;;;;-6.57;66.95;103091.80;107539;1251;97920;-65
2024/01/31 05:29:45;;;;;;;51.30;22.00;;;;;;;-6.57;67.16;103090.05;107599;1251;97843;-66
2024/01/31 05:32:13;;;;;;;44.80;21.50;;;;;;;-6.55;67.03;103085.39;107581;1251;110980;-66
2024/01/31 05:34:44;;;;;;;52.90;23.60;;;;;;;-6.56;66.70;103081.73;107592;1251;107308;-65
2024/01/31 05:37:13;;;;;;;49.90;21.90;;;;;;;-6.55;66.69;103081.70;107596;1251;107410;-65
2024/01/31 05:39:41;;;;;;;43.80;21.00;;;;;;;-6.54;67.27;103082.26;107581;1251;97841;-66
2024/01/31 05:42:10;;;;;;;65.80;24.30;;;;;;;-6.56;66.72;103087.13;107541;1252;97704;-66
2024/01/31 05:44:39;;;;;;;47.70;22.80;;;;;;;-6.57;67.20;103086.93;107573;1251;112184;-65
2024/01/31 05:47:07;;;;;;;45.50;20.80;;;;;;;-6.57;66.99;103086.05;107560;1254;107918;-64
2024/01/31 05:49:35;;;;;;;63.90;23.60;;;;;;;-6.56;66.97;103088.16;107527;1251;108152;-66
2024/01/31 05:52:05;;;;;;;46.90;21.30;;;;;;;-6.57;67.13;103087.27;107615;1251;97970;-66
2024/01/31 05:54:33;;;;;;;50.90;23.60;;;;;;;-6.57;67.34;103087.63;107552;1251;98586;-66
2024/01/31 05:57:01;;;;;;;63.00;30.10;;;;;;;-6.54;67.38;103090.14;107547;1254;111614;-65
2024/01/31 05:59:30;;;;;;;221.90;36.50;;;;;;;-6.49;67.26;103084.63;107498;1254;107923;-64
2024/01/31 06:01:59;;;;;;;50.00;24.50;;;;;;;-6.47;67.28;103083.64;107566;1251;107311;-66
2024/01/31 06:04:28;;;;;;;88.80;33.20;;;;;;;-6.44;67.25;103077.75;107618;1251;97895;-66
2024/01/31 06:06:56;;;;;;;72.30;30.90;;;;;;;-6.41;67.26;103076.59;107569;1254;101217;-67
2024/01/31 06:09:26;;;;;;;158.70;68.00;;;;;;;-6.34;67.77;103070.27;107544;1254;111510;-66
2024/01/31 06:11:55;;;;;;;184.60;81.80;;;;;;;-6.27;67.59;103072.30;107525;1251;108071;-66
2024/01/31 06:14:23;;;;;;;130.40;55.80;;;;;;;-6.25;67.53;103073.04;107430;1251;108432;-65
2024/01/31 06:16:51;;;;;;;84.80;34.90;;;;;;;-6.19;67.66;103071.41;107548;1251;97850;-65
2024/01/31 06:19:20;;;;;;;56.70;26.70;;;;;;;-6.17;67.14;103069.86;107605;1251;98467;-67
2024/01/31 06:21:48;;;;;;;68.20;28.80;;;;;;;-6.14;67.31;103066.80;107476;1251;111631;-65
2024/01/31 06:24:16;;;;;;;65.80;28.20;;;;;;;-6.09;67.61;103065.46;107611;1251;108972;-66
2024/01/31 06:26:45;;;;;;;60.90;26.70;;;;;;;-6.03;68.14;103064.19;107594;1251;107217;-66
2024/01/31 06:29:18;;;;;;;71.00;33.90;;;;;;;-5.97;67.78;103065.48;107481;1251;97946;-67
2024/01/31 06:31:47;;;;;;;67.00;30.80;;;;;;;-5.83;68.14;103067.27;107633;1251;97707;-67
2024/01/31 06:34:16;;;;;;;73.20;27.20;;;;;;;-5.69;68.10;103061.92;107612;1251;110587;-66
2024/01/31 06:36:45;;;;;;;61.70;27.30;;;;;;;-5.54;68.22;103062.33;107554;1251;109021;-66
2024/01/31 06:39:14;;;;;;;58.40;27.70;;;;;;;-5.43;68.01;103063.20;107559;1254;107789;-66
2024/01/31 06:41:42;;;;;;;62.60;28.50;;;;;;;-5.38;67.98;103066.23;107423;1251;97911;-66
2024/01/31 06:44:10;;;;;;;61.50;27.70;;;;;;;-5.34;67.99;103068.74;107586;1250;98469;-65
2024/01/31 06:46:39;;;;;;;56.30;26.00;;;;;;;-5.27;67.87;103065.88;107572;1254;111710;-65
2024/01/31 06:49:07;;;;;;;52.90;23.00;;;;;;;-5.20;68.00;103055.64;107493;1253;108100;-65
2024/01/31 06:51:36;;;;;;;48.70;22.90;;;;;;;-5.12;68.20;103057.49;107491;1251;107840;-65
2024/01/31 06:54:04;;;;;;;50.90;24.10;;;;;;;-5.04;68.04;103056.22;107615;1251;97870;-64
2024/01/31 06:56:32;;;;;;;53.80;23.30;;;;;;;-4.96;68.18;103055.98;107592;1251;97831;-65
2024/01/31 06:59:03;;;;;;;49.50;22.30;;;;;;;-4.90;68.07;103056.57;107557;1251;111451;-65
2024/01/31 07:01:32;;;;;;;50.10;23.80;;;;;;;-4.82;68.03;103055.46;107629;1251;107966;-66
2024/01/31 07:04:00;;;;;;;50.90;25.50;;;;;;;-4.73;68.21;103059.41;107539;1251;108547;-67
2024/01/31 07:06:29;;;;;;;63.80;32.30;;;;;;;-4.65;67.94;103057.75;107550;1251;97886;-65
2024/01/31 07:08:58;;;;;;;65.20;32.80;;;;;;;-4.56;68.36;103056.64;107571;1251;97701;-65
2024/01/31 07:11:27;;;;;;;61.80;31.30;;;;;;;-4.43;68.51;103054.14;107664;1251;111264;-67
2024/01/31 07:13:55;;;;;;;55.70;27.10;;;;;;;-4.32;68.81;103052.52;107577;1251;107921;-64
2024/01/31 07:16:24;;;;;;;60.50;28.50;;;;;;;-4.20;68.51;103052.27;107508;1251;108378;-66
2024/01/31 07:18:53;;;;;;;65.90;29.80;;;;;;;-4.10;69.01;103050.98;107554;1251;97857;-65
2024/01/31 07:21:25;;;;;;;70.00;31.20;;;;;;;-3.99;68.97;103045.29;107583;1251;98411;-67
2024/01/31 07:23:54;;;;;;;80.30;38.80;;;;;;;-3.86;69.34;103041.71;107541;1251;110775;-66
2024/01/31 07:26:24;;;;;;;75.00;35.90;;;;;;;-3.75;69.17;103040.77;107645;1251;108027;-66
2024/01/31 07:28:52;;;;;;;78.00;36.10;;;;;;;-3.64;69.10;103038.56;107604;1251;108546;-65
2024/01/31 07:31:21;;;;;;;83.30;36.90;;;;;;;-3.53;69.31;103039.86;107524;1252;97841;-66
2024/01/31 07:33:49;;;;;;;75.80;38.00;;;;;;;-3.41;69.56;103039.24;107489;1252;98466;-66
2024/01/31 07:36:19;;;;;;;78.90;35.50;;;;;;;-3.28;69.80;103038.80;107510;1257;111422;-65
2024/01/31 07:38:48;;;;;;;79.00;34.30;;;;;;;-3.14;69.80;103039.92;107613;1255;108078;-65
2024/01/31 07:41:16;;;;;;;89.20;37.50;;;;;;;-3.04;69.66;103036.64;107546;1254;109934;-65
2024/01/31 07:43:44;;;;;;;79.50;35.20;;;;;;;-2.92;69.68;103044.95;107565;1253;97806;-66
2024/01/31 07:46:13;;;;;;;71.60;35.00;;;;;;;-2.79;69.48;103041.13;107505;1254;97749;-66
2024/01/31 07:48:41;;;;;;;72.90;33.30;;;;;;;-2.65;69.81;103040.13;107455;1254;111934;-67
2024/01/31 07:51:10;;;;;;;73.30;35.30;;;;;;;-2.53;69.90;103034.89;107501;1254;108688;-65
2024/01/31 07:53:39;;;;;;;74.80;35.00;;;;;;;-2.38;69.93;103039.50;107537;1254;108621;-64
2024/01/31 07:56:07;;;;;;;70.40;35.30;;;;;;;-2.26;70.06;103031.62;107502;1254;97867;-65
2024/01/31 07:58:35;;;;;;;72.20;32.70;;;;;;;-2.13;70.64;103029.17;107593;1252;97700;-65
2024/01/31 08:01:04;;;;;;;69.40;31.80;;;;;;;-2.01;70.62;103026.71;107524;1254;111853;-65
2024/01/31 08:03:38;;;;;;;73.10;33.20;;;;;;;-1.89;70.84;103023.73;107584;1253;107994;-66
2024/01/31 08:06:08;;;;;;;75.40;30.40;;;;;;;-1.73;71.11;103021.08;107506;1254;106724;-66
2024/01/31 08:08:37;;;;;;;68.90;31.80;;;;;;;-1.63;71.65;103021.07;107534;1256;97919;-66
2024/01/31 08:11:06;;;;;;;71.40;34.90;;;;;;;-1.51;71.35;103011.38;107550;1254;97736;-66
2024/01/31 08:13:34;;;;;;;67.10;33.40;;;;;;;-1.37;71.49;103014.85;107575;1254;111905;-64
2024/01/31 08:16:05;;;;;;;72.30;31.50;;;;;;;-1.24;71.49;103010.95;107477;1253;108579;-66
2024/01/31 08:18:33;;;;;;;64.40;33.60;;;;;;;-1.10;71.52;103011.26;107572;1254;109316;-66
2024/01/31 08:21:02;;;;;;;62.50;29.90;;;;;;;-0.96;71.79;103004.16;107535;1254;97826;-67
2024/01/31 08:23:30;;;;;;;70.80;30.50;;;;;;;-0.82;71.87;103004.98;107575;1253;97707;-66
2024/01/31 08:25:58;;;;;;;61.30;31.90;;;;;;;-0.67;72.08;103001.20;107518;1252;111193;-65
2024/01/31 08:28:26;;;;;;;64.20;30.40;;;;;;;-0.51;71.83;103000.41;107561;1254;107864;-66
2024/01/31 08:30:55;;;;;;;63.20;32.10;;;;;;;-0.32;71.71;102995.17;107520;1254;107153;-62
2024/01/31 08:33:23;;;;;;;69.70;33.60;;;;;;;-0.15;71.85;102994.69;107520;1254;97831;-61
2024/01/31 08:35:52;;;;;;;64.10;31.60;;;;;;;0.03;71.67;102991.38;107552;1252;97892;-64
2024/01/31 08:38:20;;;;;;;67.00;32.40;;;;;;;0.15;71.57;102992.14;107520;1254;111909;-63
2024/01/31 08:40:48;;;;;;;64.40;32.00;;;;;;;0.26;70.97;102993.27;107541;1254;108289;-63
2024/01/31 08:43:17;;;;;;;71.70;37.40;;;;;;;0.39;71.00;102990.86;107543;1254;107916;-63
2024/01/31 08:45:46;;;;;;;80.90;39.70;;;;;;;0.48;70.52;102992.70;107054;1254;775916;-64
2024/01/31 08:48:14;;;;;;;75.80;36.80;;;;;;;0.58;70.43;102989.60;107575;1254;97825;-63
2024/01/31 08:50:43;;;;;;;77.70;38.20;;;;;;;0.72;69.96;102985.38;107576;1254;112090;-63
2024/01/31 08:53:11;;;;;;;79.60;38.10;;;;;;;0.83;69.94;102988.25;107601;1253;108409;-64
2024/01/31 08:55:39;;;;;;;66.00;33.40;;;;;;;1.00;69.67;102982.05;107553;1254;108419;-63
2024/01/31 08:58:08;;;;;;;66.20;33.20;;;;;;;1.15;69.47;102984.32;107527;1252;97603;-64
2024/01/31 09:00:37;;;;;;;58.30;31.50;;;;;;;1.28;69.38;102976.17;107565;1254;97777;-66
2024/01/31 09:03:05;;;;;;;63.50;31.90;;;;;;;1.42;69.16;102973.17;107559;1253;111295;-65
2024/01/31 09:05:34;;;;;;;60.60;31.00;;;;;;;1.61;68.96;102962.27;107498;1254;108581;-66
2024/01/31 09:08:05;;;;;;;56.50;30.20;;;;;;;1.96;69.04;102961.87;107491;1254;108275;-66
2024/01/31 09:10:33;;;;;;;56.60;30.10;;;;;;;2.44;68.16;102958.00;107513;1253;97841;-66
2024/01/31 09:13:01;;;;;;;57.00;29.90;;;;;;;3.10;67.09;102956.45;107571;1253;98402;-64
2024/01/31 09:15:29;;;;;;;55.60;29.90;;;;;;;3.96;65.86;102948.75;107493;1252;112473;-64
2024/01/31 09:17:58;;;;;;;57.70;29.90;;;;;;;4.74;63.14;102943.63;107466;1256;108676;-64
2024/01/31 09:20:26;;;;;;;49.10;29.00;;;;;;;5.29;62.43;102938.08;107424;1253;108598;-63
2024/01/31 09:22:54;;;;;;;59.90;30.30;;;;;;;5.89;62.40;102932.04;107436;1253;97885;-63
2024/01/31 09:25:23;;;;;;;53.40;30.40;;;;;;;6.47;61.00;102922.70;107489;1253;98503;-64
2024/01/31 09:27:51;;;;;;;50.50;28.80;;;;;;;7.10;60.97;102919.97;107527;1254;111405;-63
2024/01/31 09:30:20;;;;;;;54.60;28.50;;;;;;;7.72;59.55;102918.88;107543;1251;106960;-64
2024/01/31 09:32:48;;;;;;;51.60;30.00;;;;;;;8.21;58.79;102911.44;107524;1254;108662;-65
2024/01/31 09:35:16;;;;;;;49.10;29.30;;;;;;;8.74;57.49;102905.34;107533;1251;97925;-64
2024/01/31 09:37:45;;;;;;;41.30;27.20;;;;;;;9.24;57.61;102897.22;107532;1251;97949;-67
2024/01/31 09:40:15;;;;;;;65.60;30.80;;;;;;;9.90;56.71;102890.52;107563;1251;112262;-68
2024/01/31 09:42:44;;;;;;;43.90;27.80;;;;;;;10.45;54.73;102887.15;107610;1255;106820;-67
2024/01/31 09:45:14;;;;;;;44.70;28.20;;;;;;;10.77;52.81;102885.54;107510;1251;108427;-67
2024/01/31 09:47:45;;;;;;;43.10;29.00;;;;;;;11.26;51.21;102884.08;107540;1251;97824;-66
2024/01/31 09:50:15;;;;;;;41.70;26.70;;;;;;;11.46;48.41;102881.99;107534;1254;97733;-66
2024/01/31 09:52:49;;;;;;;43.10;27.50;;;;;;;11.63;48.32;102884.28;107595;1251;112256;-67
2024/01/31 09:55:19;;;;;;;46.00;27.70;;;;;;;11.80;47.69;102876.79;107558;1251;106758;-66
2024/01/31 09:57:49;;;;;;;50.30;28.30;;;;;;;12.10;46.69;102875.89;107502;1254;108400;-66
2024/01/31 10:00:18;;;;;;;43.90;28.20;;;;;;;12.43;46.53;102871.91;107566;1251;97860;-66
2024/01/31 10:02:50;;;;;;;41.50;27.00;;;;;;;12.91;47.04;102866.11;107540;1251;98355;-66
2024/01/31 10:05:18;;;;;;;49.20;26.20;;;;;;;13.47;44.83;102854.90;107547;1255;112171;-68
2024/01/31 10:07:47;;;;;;;41.70;26.60;;;;;;;13.70;43.53;102857.48;107482;1251;108197;-66
2024/01/31 10:10:16;;;;;;;47.00;27.70;;;;;;;14.02;43.35;102850.05;107577;1254;108568;-68
2024/01/31 10:12:47;;;;;;;49.30;26.50;;;;;;;14.19;41.39;102849.77;107439;1256;97828;-67
2024/01/31 10:15:15;;;;;;;42.30;26.90;;;;;;;14.36;41.00;102845.30;107514;1251;97802;-67
2024/01/31 10:17:44;;;;;;;50.70;26.40;;;;;;;14.64;40.89;102839.76;107569;1251;110975;-68
2024/01/31 10:20:16;;;;;;;40.10;25.30;;;;;;;15.06;40.85;102836.33;107543;1251;108286;-66
2024/01/31 10:22:45;;;;;;;38.70;26.60;;;;;;;15.47;40.88;102837.34;107520;1256;107043;-67
2024/01/31 10:25:17;;;;;;;37.50;25.60;;;;;;;15.82;39.62;102832.15;107513;1251;97876;-68
2024/01/31 10:27:51;;;;;;;39.50;24.90;;;;;;;15.72;38.25;102826.00;107582;1251;97820;-68
2024/01/31 10:30:20;;;;;;;39.40;24.80;;;;;;;15.68;37.49;102826.71;107623;1251;111450;-67
2024/01/31 10:32:50;;;;;;;46.40;26.20;;;;;;;15.44;37.58;102824.90;107589;1251;108389;-68
2024/01/31 10:35:20;;;;;;;39.10;24.90;;;;;;;15.65;38.31;102824.02;107622;1251;108673;-67
2024/01/31 10:38:12;;;;;;;40.90;24.50;;;;;;;15.90;37.12;102820.52;107515;1256;97922;-67
2024/01/31 10:40:42;;;;;;;34.70;24.50;;;;;;;15.99;36.74;102813.48;107551;1251;97893;-66
2024/01/31 10:43:13;;;;;;;44.70;27.00;;;;;;;16.21;37.23;102807.34;107592;1251;112158;-68
2024/01/31 10:45:42;;;;;;;42.50;26.70;;;;;;;16.52;37.91;102803.20;107514;1250;108794;-68
2024/01/31 10:48:10;;;;;;;37.60;25.50;;;;;;;17.01;37.51;102796.36;107529;1256;108431;-66
2024/01/31 10:50:40;;;;;;;40.70;25.20;;;;;;;17.42;36.54;102790.90;107542;1251;97857;-68
2024/01/31 10:53:10;;;;;;;36.90;24.60;;;;;;;17.71;35.60;102783.70;107547;1251;98445;-68
2024/01/31 10:55:39;;;;;;;;;;;;;;;17.91;34.30;102779.95;107453;1251;111217;-67
2024/01/31 10:58:09;;;;;;;;;;;;;;;17.88;34.36;102778.79;107574;1254;108612;-66
2024/01/31 11:00:45;;;;;;;;;;;;;;;18.03;34.57;102770.56;107558;1251;108406;-68
2024/01/31 11:03:18;;;;;;;;;;;;;;;18.13;34.23;102766.09;107521;1251;99463;-66
2024/01/31 11:05:48;;;;;;;;;;;;;;;18.29;34.28;102763.77;107589;1254;97877;-67
2024/01/31 11:08:20;;;;;;;;;;;;;;;18.44;33.59;102760.06;107531;1251;110423;-66